createdAt,value
2023-12-22T00:00:43.555Z,3.62
2023-12-22T00:04:47.679Z,3.49
2023-12-22T00:08:50.428Z,3.45
2023-12-22T00:12:53.185Z,3.51
2023-12-22T00:16:55.952Z,3.52
2023-12-22T00:21:00.068Z,3.47
2023-12-22T00:25:03.257Z,3.60
2023-12-22T00:29:05.968Z,3.54
2023-12-22T00:33:08.734Z,3.41
2023-12-22T00:37:13.583Z,3.22
2023-12-22T00:41:16.405Z,3.12
2023-12-22T00:45:19.248Z,3.05
2023-12-22T00:49:23.232Z,3.00
2023-12-22T00:53:27.334Z,2.97
2023-12-22T00:57:31.257Z,2.87
2023-12-22T01:01:33.942Z,2.80
2023-12-22T01:05:36.747Z,2.74
2023-12-22T01:09:40.856Z,2.72
2023-12-22T01:13:43.517Z,2.69
2023-12-22T01:17:46.529Z,2.68
2023-12-22T01:21:51.774Z,2.61
2023-12-22T01:25:57.087Z,2.63
2023-12-22T01:29:59.814Z,2.62
2023-12-22T01:34:02.558Z,2.57
2023-12-22T01:38:05.526Z,2.56
2023-12-22T01:42:09.682Z,2.52
2023-12-22T01:46:14.267Z,2.45
2023-12-22T01:50:18.393Z,2.41
2023-12-22T01:54:21.189Z,2.39
2023-12-22T01:58:26.247Z,2.33
2023-12-22T02:02:29.428Z,2.32
2023-12-22T02:06:33.038Z,2.28
2023-12-22T02:10:35.752Z,2.33
2023-12-22T02:14:41.951Z,2.32
2023-12-22T02:18:49.340Z,2.31
2023-12-22T02:22:54.840Z,2.29
2023-12-22T02:27:01.328Z,2.28
2023-12-22T02:31:11.935Z,2.26
2023-12-22T02:35:19.294Z,2.21
2023-12-22T02:39:23.511Z,2.19
2023-12-22T02:43:26.244Z,2.13
2023-12-22T02:47:30.065Z,2.16
2023-12-22T02:51:32.792Z,2.12
2023-12-22T02:55:38.107Z,2.13
2023-12-22T02:59:40.996Z,2.12
2023-12-22T03:03:43.724Z,2.22
2023-12-22T03:07:46.604Z,2.26
2023-12-22T03:11:52.923Z,2.31
2023-12-22T03:15:55.809Z,2.32
2023-12-22T03:19:58.736Z,2.40
2023-12-22T03:24:01.491Z,2.38
2023-12-22T03:28:06.205Z,2.35
2023-12-22T03:32:08.879Z,2.34
2023-12-22T03:36:11.570Z,2.36
2023-12-22T03:40:14.486Z,2.37
2023-12-22T03:44:18.505Z,2.40
2023-12-22T03:48:21.209Z,2.30
2023-12-22T03:52:23.989Z,2.16
2023-12-22T03:56:26.692Z,1.98
2023-12-22T04:00:30.709Z,1.86
2023-12-22T04:04:33.441Z,1.81
2023-12-22T04:08:36.174Z,1.71
2023-12-22T04:12:38.857Z,1.65
2023-12-22T04:16:42.950Z,1.61
2023-12-22T04:20:45.648Z,1.57
2023-12-22T04:24:48.353Z,1.49
2023-12-22T04:28:51.083Z,1.45
2023-12-22T04:32:55.285Z,1.48
2023-12-22T04:36:57.997Z,1.47
2023-12-22T04:41:00.710Z,1.48
2023-12-22T04:45:03.401Z,1.47
2023-12-22T04:49:07.727Z,1.44
2023-12-22T04:53:11.076Z,1.45
2023-12-22T04:57:16.113Z,1.49
2023-12-22T05:01:20.603Z,1.49
2023-12-22T05:05:24.690Z,1.51
2023-12-22T05:09:28.396Z,1.53
2023-12-22T05:13:31.165Z,1.55
2023-12-22T05:17:34.683Z,1.61
2023-12-22T05:21:38.725Z,1.62
2023-12-22T05:25:41.855Z,1.55
2023-12-22T05:29:44.569Z,1.59
2023-12-22T05:33:47.318Z,1.57
2023-12-22T05:37:51.699Z,1.82
2023-12-22T05:41:54.572Z,2.22
2023-12-22T05:45:57.273Z,2.00
2023-12-22T05:50:00.219Z,1.97
2023-12-22T05:54:04.638Z,2.12
2023-12-22T05:58:07.421Z,2.10
2023-12-22T06:02:10.179Z,2.09
2023-12-22T06:06:13.007Z,2.11
2023-12-22T06:10:17.368Z,2.21
2023-12-22T06:14:20.082Z,2.16
2023-12-22T06:18:22.913Z,2.17
2023-12-22T06:22:25.662Z,2.08
2023-12-22T06:26:29.738Z,2.03
2023-12-22T06:30:32.454Z,2.22
2023-12-22T06:34:35.400Z,2.23
2023-12-22T06:38:38.143Z,2.18
2023-12-22T06:42:42.119Z,2.14
2023-12-22T06:46:44.849Z,2.09
2023-12-22T06:50:47.814Z,2.16
2023-12-22T06:54:50.680Z,2.10
2023-12-22T06:58:56.136Z,1.98
2023-12-22T07:02:58.958Z,1.92
2023-12-22T07:07:01.669Z,1.87
2023-12-22T07:11:04.552Z,1.89
2023-12-22T07:15:11.000Z,1.93
2023-12-22T07:19:14.615Z,1.97
2023-12-22T07:23:17.378Z,2.02
2023-12-22T07:27:20.087Z,2.06
2023-12-22T07:31:24.373Z,2.20
2023-12-22T07:35:27.184Z,2.26
2023-12-22T07:39:29.863Z,2.37
2023-12-22T07:43:33.830Z,2.43
2023-12-22T07:47:38.850Z,2.57
2023-12-22T07:51:42.166Z,2.62
2023-12-22T07:55:45.916Z,2.64
2023-12-22T07:59:48.688Z,2.57
2023-12-22T08:03:52.883Z,2.58
2023-12-22T08:07:55.649Z,2.62
2023-12-22T08:11:58.472Z,2.62
2023-12-22T08:16:01.161Z,2.62
2023-12-22T08:20:12.265Z,2.55
2023-12-22T08:24:22.872Z,2.54
2023-12-22T08:28:27.082Z,2.65
2023-12-22T08:32:29.882Z,2.73
2023-12-22T08:36:34.262Z,2.86
2023-12-22T08:44:39.930Z,3.01
2023-12-22T08:48:42.866Z,3.28
2023-12-22T08:52:47.025Z,3.45
2023-12-22T08:56:50.796Z,3.56
2023-12-22T09:00:53.591Z,3.60
2023-12-22T09:04:56.388Z,3.73
2023-12-22T09:09:00.526Z,3.80
2023-12-22T09:13:03.314Z,3.89
2023-12-22T09:17:06.036Z,3.93
2023-12-22T09:21:09.064Z,3.96
2023-12-22T09:25:13.225Z,3.89
2023-12-22T09:29:16.145Z,3.81
2023-12-22T09:33:19.014Z,3.69
2023-12-22T09:37:21.796Z,3.73
2023-12-22T09:41:25.885Z,3.79
2023-12-22T09:45:28.776Z,3.99
2023-12-22T09:49:31.623Z,4.39
2023-12-22T09:53:35.424Z,4.48
2023-12-22T09:57:40.499Z,4.30
2023-12-22T10:01:45.983Z,4.27
2023-12-22T10:05:49.124Z,4.34
2023-12-22T10:09:52.750Z,4.35
2023-12-22T10:13:58.337Z,4.43
2023-12-22T10:18:01.140Z,4.36
2023-12-22T10:22:04.720Z,4.34
2023-12-22T10:26:09.312Z,4.30
2023-12-22T10:30:15.871Z,4.14
2023-12-22T10:34:19.031Z,3.91
2023-12-22T10:38:21.830Z,3.78
2023-12-22T10:42:24.692Z,3.68
2023-12-22T10:46:28.769Z,3.65
2023-12-22T10:50:31.535Z,3.63
2023-12-22T10:54:34.207Z,3.56
2023-12-22T10:58:38.058Z,3.61
2023-12-22T11:02:44.506Z,3.61
2023-12-22T11:06:51.304Z,3.65
2023-12-22T11:10:58.518Z,3.70
2023-12-22T11:15:02.191Z,3.45
2023-12-22T11:19:06.468Z,3.41
2023-12-22T11:23:11.479Z,3.69
2023-12-22T11:27:15.441Z,3.77
2023-12-22T11:31:18.175Z,3.91
2023-12-22T11:35:24.309Z,3.98
2023-12-22T11:39:36.390Z,3.96
2023-12-22T11:43:40.503Z,4.00
2023-12-22T11:47:43.272Z,3.91
2023-12-22T11:51:47.675Z,3.94
2023-12-22T11:56:01.234Z,3.87
2023-12-22T12:00:08.768Z,3.83
2023-12-22T12:04:11.523Z,3.78
2023-12-22T12:08:15.689Z,3.74
2023-12-22T12:12:19.164Z,3.70
2023-12-22T12:16:23.692Z,3.71
2023-12-22T12:20:26.677Z,3.72
2023-12-22T12:24:30.858Z,3.67
2023-12-22T12:28:35.462Z,3.74
2023-12-22T12:32:38.715Z,3.90
2023-12-22T12:36:42.110Z,3.97
2023-12-22T12:40:47.725Z,3.87
2023-12-22T12:44:51.239Z,3.96
2023-12-22T12:49:06.370Z,4.12
2023-12-22T12:53:09.342Z,4.03
2023-12-22T12:57:17.777Z,3.87
2023-12-22T13:01:25.977Z,3.85
2023-12-22T13:05:32.826Z,3.90
2023-12-22T13:09:36.125Z,3.87
2023-12-22T13:13:44.517Z,3.91
2023-12-22T13:17:48.733Z,3.99
2023-12-22T13:21:51.710Z,4.07
2023-12-22T13:25:54.928Z,4.18
2023-12-22T13:29:58.953Z,4.33
2023-12-22T13:34:02.171Z,4.38
2023-12-22T13:38:07.757Z,4.47
2023-12-22T13:42:17.110Z,4.60
2023-12-22T13:46:21.807Z,4.63
2023-12-22T13:50:24.878Z,4.70
2023-12-22T13:54:34.613Z,4.75
2023-12-22T13:58:45.793Z,4.86
2023-12-22T14:02:50.685Z,4.86
2023-12-22T14:06:53.782Z,4.93
2023-12-22T14:10:56.457Z,4.87
2023-12-22T14:14:59.100Z,4.93
2023-12-22T14:19:03.187Z,5.01
2023-12-22T14:23:06.085Z,5.14
2023-12-22T14:27:09.169Z,5.05
2023-12-22T14:31:11.842Z,4.99
2023-12-22T14:35:16.035Z,4.83
2023-12-22T14:39:19.009Z,4.91
2023-12-22T14:43:21.628Z,4.97
2023-12-22T14:47:24.423Z,4.93
2023-12-22T14:51:29.230Z,4.90
2023-12-22T14:55:33.163Z,4.86
2023-12-22T14:59:35.896Z,4.85
2023-12-22T15:03:38.726Z,4.78
2023-12-22T15:07:42.956Z,4.69
2023-12-22T15:11:46.599Z,4.59
2023-12-22T15:15:50.772Z,4.47
2023-12-22T15:19:54.317Z,4.41
2023-12-22T15:23:58.512Z,4.35
2023-12-22T15:28:01.285Z,4.36
2023-12-22T15:32:04.100Z,4.30
2023-12-22T15:36:07.412Z,4.30
2023-12-22T15:40:12.082Z,4.28
2023-12-22T15:44:14.866Z,4.36
2023-12-22T15:48:17.831Z,4.46
2023-12-22T15:52:20.613Z,5.05
2023-12-22T15:56:24.687Z,5.29
2023-12-22T16:00:28.669Z,5.41
2023-12-22T16:04:31.937Z,5.77
2023-12-22T16:08:36.592Z,5.78
2023-12-22T16:12:41.536Z,5.54
2023-12-22T16:16:44.497Z,5.50
2023-12-22T16:20:47.191Z,5.38
2023-12-22T16:24:49.879Z,5.35
2023-12-22T16:28:53.963Z,5.39
2023-12-22T16:32:56.750Z,5.37
2023-12-22T16:36:59.494Z,5.33
2023-12-22T16:41:05.411Z,5.34
2023-12-22T16:45:10.590Z,5.51
2023-12-22T16:49:13.312Z,5.64
2023-12-22T16:53:16.205Z,5.63
2023-12-22T16:57:19.193Z,5.63
2023-12-22T17:01:36.248Z,5.67
2023-12-22T17:05:44.024Z,5.81
2023-12-22T17:09:48.008Z,5.94
2023-12-22T17:13:50.803Z,6.07
2023-12-22T17:17:55.289Z,6.29
2023-12-22T17:21:58.010Z,6.25
2023-12-22T17:26:00.793Z,6.16
2023-12-22T17:30:03.584Z,6.09
2023-12-22T17:34:08.773Z,6.23
2023-12-22T17:38:11.513Z,6.63
2023-12-22T17:42:14.228Z,6.49
2023-12-22T17:46:16.978Z,6.59
2023-12-22T17:50:23.193Z,6.73
2023-12-22T17:54:25.935Z,6.91
2023-12-22T17:58:28.979Z,6.80
2023-12-22T18:02:31.696Z,6.73
2023-12-22T18:06:35.734Z,6.91
2023-12-22T18:10:40.958Z,6.95
2023-12-22T18:14:43.766Z,6.91
2023-12-22T18:18:47.332Z,6.80
2023-12-22T18:22:51.501Z,6.94
2023-12-22T18:26:54.568Z,7.02
2023-12-22T18:30:57.235Z,7.01
2023-12-22T18:35:00.131Z,6.97
2023-12-22T18:39:04.893Z,7.23
2023-12-22T18:43:07.612Z,7.29
2023-12-22T18:47:10.479Z,7.19
2023-12-22T18:51:14.198Z,7.19
2023-12-22T18:55:18.692Z,7.27
2023-12-22T18:59:21.530Z,7.22
2023-12-22T19:03:24.826Z,7.19
2023-12-22T19:07:29.487Z,7.15
2023-12-22T19:11:33.654Z,7.27
2023-12-22T19:15:36.934Z,7.13
2023-12-22T19:19:39.912Z,7.25
2023-12-22T19:23:42.898Z,7.16
2023-12-22T19:27:47.611Z,7.22
2023-12-22T19:31:50.541Z,7.21
2023-12-22T19:35:53.301Z,7.17
2023-12-22T19:39:56.218Z,7.12
2023-12-22T19:44:00.326Z,7.10
2023-12-22T19:48:03.158Z,7.20
2023-12-22T19:52:06.449Z,7.14
2023-12-22T19:56:09.314Z,7.29
2023-12-22T20:00:14.249Z,7.20
2023-12-22T20:04:16.939Z,7.12
2023-12-22T20:08:20.171Z,7.05
2023-12-22T20:12:23.472Z,6.89
2023-12-22T20:16:27.798Z,6.68
2023-12-22T20:20:30.671Z,6.57
2023-12-22T20:24:33.546Z,6.52
2023-12-22T20:28:37.354Z,6.42
2023-12-22T20:32:42.055Z,6.50
2023-12-22T20:36:45.086Z,6.46
2023-12-22T20:40:47.806Z,6.54
2023-12-22T20:44:50.551Z,6.61
2023-12-22T20:48:54.822Z,6.58
2023-12-22T20:52:57.545Z,6.53
2023-12-22T20:57:00.258Z,6.62
2023-12-22T21:01:02.937Z,6.61
2023-12-22T21:05:08.878Z,6.72
2023-12-22T21:09:11.935Z,6.69
2023-12-22T21:13:14.769Z,6.79
2023-12-22T21:17:19.340Z,6.81
2023-12-22T21:21:23.623Z,6.80
2023-12-22T21:25:26.777Z,6.83
2023-12-22T21:29:29.515Z,6.78
2023-12-22T21:33:32.260Z,6.77
2023-12-22T21:37:36.393Z,6.71
2023-12-22T21:41:39.093Z,6.73
2023-12-22T21:45:43.147Z,6.81
2023-12-22T21:49:46.173Z,6.83
2023-12-22T21:53:50.248Z,6.67
2023-12-22T21:57:53.338Z,6.76
2023-12-22T22:01:56.550Z,6.77
2023-12-22T22:05:59.356Z,6.68
2023-12-22T22:10:03.402Z,6.72
2023-12-22T22:14:14.722Z,6.76
2023-12-22T22:18:25.903Z,6.78
2023-12-22T22:22:29.610Z,6.81
2023-12-22T22:26:33.806Z,6.90
2023-12-22T22:30:36.456Z,6.82
2023-12-22T22:34:39.185Z,6.91
2023-12-22T22:38:41.952Z,6.90
2023-12-22T22:42:46.001Z,6.91
2023-12-22T22:46:49.231Z,7.11
2023-12-22T22:50:51.949Z,7.15
2023-12-22T22:54:55.184Z,7.05
2023-12-22T22:58:59.399Z,7.06
2023-12-22T23:03:02.155Z,7.21
2023-12-22T23:07:05.115Z,7.17
2023-12-22T23:11:07.849Z,7.21
2023-12-22T23:15:12.473Z,7.10
2023-12-22T23:19:15.234Z,7.28
2023-12-22T23:23:18.702Z,7.14
2023-12-22T23:27:21.777Z,7.15
2023-12-22T23:31:25.765Z,7.09
2023-12-22T23:35:28.999Z,7.13
2023-12-22T23:39:32.669Z,7.12
2023-12-22T23:43:35.350Z,7.08
2023-12-22T23:47:39.477Z,7.07
2023-12-22T23:51:42.258Z,7.19
2023-12-22T23:55:44.983Z,6.99
2023-12-22T23:59:47.688Z,6.61
